createdAt,value
2017-11-29T00:01:58.160Z,99630.77
2017-11-29T00:04:26.775Z,99629.38
2017-11-29T00:06:55.490Z,99626.05
2017-11-29T00:09:24.458Z,99629.00
2017-11-29T00:11:53.262Z,99631.58
2017-11-29T00:14:21.947Z,99637.50
2017-11-29T00:16:50.638Z,99633.72
2017-11-29T00:19:19.247Z,99640.91
2017-11-29T00:21:47.981Z,99642.70
2017-11-29T00:24:16.535Z,99643.98
2017-11-29T00:26:45.214Z,99645.66
2017-11-29T00:29:13.967Z,99644.39
2017-11-29T00:31:42.595Z,99651.20
2017-11-29T00:34:11.301Z,99646.97
2017-11-29T00:36:39.952Z,99651.23
2017-11-29T00:39:08.568Z,99655.44
2017-11-29T00:41:37.380Z,99655.95
2017-11-29T00:44:06.176Z,99652.14
2017-11-29T00:46:35.142Z,99660.59
2017-11-29T00:49:03.832Z,99653.41
2017-11-29T00:51:32.478Z,99652.47
2017-11-29T00:54:01.158Z,99664.45
2017-11-29T00:56:29.776Z,99660.97
2017-11-29T00:58:58.319Z,99667.30
2017-11-29T01:01:26.818Z,99663.07
2017-11-29T01:03:55.327Z,99662.31
2017-11-29T01:06:24.021Z,99666.52
2017-11-29T01:08:52.748Z,99664.38
2017-11-29T01:11:21.416Z,99671.20
2017-11-29T01:13:50.132Z,99668.23
2017-11-29T01:16:18.752Z,99670.41
2017-11-29T01:18:47.424Z,99670.81
2017-11-29T01:21:16.136Z,99673.47
2017-11-29T01:23:44.792Z,99671.67
2017-11-29T01:26:13.486Z,99670.06
2017-11-29T01:28:42.173Z,99675.12
2017-11-29T01:31:10.802Z,99675.16
2017-11-29T01:33:39.465Z,99675.95
2017-11-29T01:36:08.156Z,99676.77
2017-11-29T01:38:36.825Z,99678.91
2017-11-29T01:41:05.715Z,99678.94
2017-11-29T01:43:34.219Z,99678.48
2017-11-29T01:46:02.756Z,99678.52
2017-11-29T01:48:31.251Z,99682.34
2017-11-29T01:50:59.919Z,99681.52
2017-11-29T01:53:28.680Z,99687.81
2017-11-29T01:55:57.420Z,99679.91
2017-11-29T01:58:26.204Z,99685.41
2017-11-29T02:00:54.852Z,99686.68
2017-11-29T02:03:28.816Z,99683.28
2017-11-29T02:05:56.943Z,99688.44
2017-11-29T02:08:38.146Z,99685.00
2017-11-29T02:11:07.719Z,99686.31
2017-11-29T02:13:36.347Z,99685.45
2017-11-29T02:16:05.035Z,99684.14
2017-11-29T02:18:33.639Z,99686.27
2017-11-29T02:21:02.471Z,99686.27
2017-11-29T02:23:30.919Z,99685.00
2017-11-29T02:25:59.290Z,99684.62
2017-11-29T02:28:27.679Z,99688.92
2017-11-29T02:30:55.867Z,99689.27
2017-11-29T02:33:24.267Z,99688.41
2017-11-29T02:35:52.661Z,99684.14
2017-11-29T02:38:20.999Z,99683.35
2017-11-29T02:41:00.904Z,99680.02
2017-11-29T02:43:29.147Z,99682.63
2017-11-29T02:45:57.886Z,99686.38
2017-11-29T02:48:26.324Z,99686.38
2017-11-29T02:50:55.030Z,99685.52
2017-11-29T02:53:27.344Z,99689.52
2017-11-29T02:55:56.098Z,99686.59
2017-11-29T02:58:24.287Z,99689.89
2017-11-29T03:00:52.776Z,99686.03
2017-11-29T03:03:25.111Z,99691.20
2017-11-29T03:05:53.639Z,99688.24
2017-11-29T03:08:22.280Z,99692.47
2017-11-29T03:10:51.064Z,99692.44
2017-11-29T03:13:23.816Z,99692.02
2017-11-29T03:15:52.560Z,99697.11
2017-11-29T03:18:21.253Z,99697.94
2017-11-29T03:20:49.940Z,99694.53
2017-11-29T03:23:18.621Z,99692.02
2017-11-29T03:25:47.407Z,99689.03
2017-11-29T03:28:16.666Z,99691.61
2017-11-29T03:30:45.312Z,99686.11
2017-11-29T03:33:13.992Z,99691.95
2017-11-29T03:35:42.633Z,99691.55
2017-11-29T03:38:11.251Z,99694.95
2017-11-29T03:40:39.908Z,99695.81
2017-11-29T03:43:08.576Z,99697.53
2017-11-29T03:45:37.235Z,99695.47
2017-11-29T03:48:05.900Z,99701.41
2017-11-29T03:50:34.556Z,99695.43
2017-11-29T03:53:03.300Z,99705.58
2017-11-29T03:55:31.913Z,99701.34
2017-11-29T03:58:00.521Z,99706.89
2017-11-29T04:00:29.187Z,99704.78
2017-11-29T04:02:57.836Z,99705.20
2017-11-29T04:05:26.527Z,99706.85
2017-11-29T04:07:55.198Z,99706.02
2017-11-29T04:10:23.901Z,99705.58
2017-11-29T04:12:52.306Z,99710.81
2017-11-29T04:15:20.977Z,99712.91
2017-11-29T04:17:49.699Z,99714.52
2017-11-29T04:20:18.095Z,99715.04
2017-11-29T04:22:46.800Z,99718.41
2017-11-29T04:25:15.180Z,99716.72
2017-11-29T04:27:43.823Z,99718.00
2017-11-29T04:30:12.336Z,99716.28
2017-11-29T04:32:41.860Z,99715.83
2017-11-29T04:35:10.569Z,99717.55
2017-11-29T04:37:39.092Z,99714.56
2017-11-29T04:40:07.825Z,99713.28
2017-11-29T04:42:36.438Z,99721.41
2017-11-29T04:45:05.151Z,99721.37
2017-11-29T04:47:33.984Z,99716.69
2017-11-29T04:50:02.680Z,99720.09
2017-11-29T04:52:32.194Z,99722.23
2017-11-29T04:55:00.600Z,99722.67
2017-11-29T04:57:29.315Z,99728.21
2017-11-29T05:00:04.323Z,99729.04
2017-11-29T05:02:36.534Z,99726.94
2017-11-29T05:05:07.579Z,99727.77
2017-11-29T05:10:35.470Z,99721.44
2017-11-29T05:13:07.345Z,99725.29
2017-11-29T05:15:35.774Z,99719.75
2017-11-29T05:18:04.166Z,99726.05
2017-11-29T05:20:33.317Z,99729.08
2017-11-29T05:23:02.047Z,99726.12
2017-11-29T05:25:30.693Z,99733.30
2017-11-29T05:27:59.355Z,99727.39
2017-11-29T05:30:27.585Z,99731.63
2017-11-29T05:32:55.815Z,99733.75
2017-11-29T05:35:24.307Z,99743.08
2017-11-29T05:37:52.660Z,99743.52
2017-11-29T05:40:20.992Z,99743.52
2017-11-29T05:42:49.360Z,99745.66
2017-11-29T05:45:18.045Z,99744.41
2017-11-29T05:47:46.832Z,99742.32
2017-11-29T05:50:18.179Z,99742.28
2017-11-29T05:52:50.884Z,99741.91
2017-11-29T05:55:19.530Z,99751.64
2017-11-29T05:57:48.333Z,99752.95
2017-11-29T06:00:16.673Z,99756.32
2017-11-29T06:02:45.363Z,99763.13
2017-11-29T06:05:13.833Z,99758.90
2017-11-29T06:07:42.342Z,99760.55
2017-11-29T06:10:11.045Z,99769.08
2017-11-29T06:12:39.670Z,99762.72
2017-11-29T06:15:08.397Z,99770.05
2017-11-29T06:17:37.087Z,99774.23
2017-11-29T06:20:05.719Z,99780.64
2017-11-29T06:22:34.406Z,99771.73
2017-11-29T06:25:03.048Z,99775.10
2017-11-29T06:27:31.820Z,99769.59
2017-11-29T06:30:00.335Z,99776.82
2017-11-29T06:32:28.947Z,99773.41
2017-11-29T06:34:57.598Z,99770.05
2017-11-29T06:37:26.215Z,99780.23
2017-11-29T06:39:54.818Z,99786.63
2017-11-29T06:42:23.511Z,99784.05
2017-11-29T06:44:52.125Z,99786.55
2017-11-29T06:47:20.785Z,99792.98
2017-11-29T06:49:49.390Z,99795.09
2017-11-29T06:52:18.015Z,99792.98
2017-11-29T06:54:46.753Z,99798.05
2017-11-29T06:57:15.364Z,99801.45
2017-11-29T06:59:43.748Z,99804.03
2017-11-29T07:02:12.943Z,99804.03
2017-11-29T07:04:41.707Z,99811.73
2017-11-29T07:07:10.358Z,99811.70
2017-11-29T07:09:38.993Z,99810.49
2017-11-29T07:12:07.652Z,99817.78
2017-11-29T07:14:36.304Z,99822.04
2017-11-29T07:17:04.973Z,99822.01
2017-11-29T07:19:33.575Z,99824.11
2017-11-29T07:22:02.237Z,99825.83
2017-11-29T07:24:30.864Z,99833.11
2017-11-29T07:26:59.517Z,99827.58
2017-11-29T07:29:28.168Z,99841.13
2017-11-29T07:31:56.848Z,99833.53
2017-11-29T07:34:25.460Z,99845.39
2017-11-29T07:36:54.110Z,99847.15
2017-11-29T07:39:22.721Z,99847.63
2017-11-29T07:41:51.375Z,99844.66
2017-11-29T07:44:20.008Z,99855.23
2017-11-29T07:46:48.664Z,99855.64
2017-11-29T07:49:17.307Z,99853.55
2017-11-29T07:51:45.945Z,99852.69
2017-11-29T07:54:14.582Z,99851.13
2017-11-29T07:56:43.228Z,99855.67
2017-11-29T07:59:11.874Z,99857.39
2017-11-29T08:01:40.616Z,99858.25
2017-11-29T08:04:09.249Z,99859.91
2017-11-29T08:06:37.924Z,99859.49
2017-11-29T08:09:06.372Z,99856.53
2017-11-29T08:11:35.016Z,99862.89
2017-11-29T08:14:03.664Z,99862.42
2017-11-29T08:16:32.620Z,99863.28
2017-11-29T08:19:01.234Z,99867.92
2017-11-29T08:21:29.911Z,99868.34
2017-11-29T08:23:58.599Z,99869.16
2017-11-29T08:26:27.252Z,99877.21
2017-11-29T08:28:56.170Z,99872.95
2017-11-29T08:31:24.815Z,99879.31
2017-11-29T08:33:53.517Z,99874.22
2017-11-29T08:36:22.188Z,99874.60
2017-11-29T08:38:50.662Z,99881.41
2017-11-29T08:41:18.946Z,99880.55
2017-11-29T08:43:47.594Z,99884.34
2017-11-29T08:46:15.963Z,99878.42
2017-11-29T08:48:44.620Z,99880.08
2017-11-29T08:51:12.931Z,99886.02
2017-11-29T08:53:41.344Z,99888.06
2017-11-29T08:56:10.009Z,99888.44
2017-11-29T08:58:38.420Z,99891.02
2017-11-29T09:01:06.756Z,99889.30
2017-11-29T09:03:35.414Z,99889.23
2017-11-29T09:06:03.782Z,99895.16
2017-11-29T09:08:32.395Z,99893.44
2017-11-29T09:11:01.104Z,99896.78
2017-11-29T09:13:29.582Z,99902.70
2017-11-29T09:15:57.928Z,99902.28
2017-11-29T09:18:26.118Z,99908.20
2017-11-29T09:20:54.586Z,99897.57
2017-11-29T09:23:23.734Z,99903.52
2017-11-29T09:25:52.176Z,99906.89
2017-11-29T09:28:21.144Z,99902.19
2017-11-29T09:30:49.525Z,99904.25
2017-11-29T09:33:24.846Z,99893.63
2017-11-29T09:35:53.453Z,99900.81
2017-11-29T09:38:21.942Z,99905.91
2017-11-29T09:40:50.395Z,99911.41
2017-11-29T09:43:26.512Z,99915.13
2017-11-29T09:45:54.892Z,99914.69
2017-11-29T09:48:23.384Z,99908.70
2017-11-29T09:50:51.730Z,99909.47
2017-11-29T09:53:23.764Z,99912.45
2017-11-29T09:55:52.122Z,99905.27
2017-11-29T09:58:20.470Z,99909.87
2017-11-29T10:00:48.635Z,99908.16
2017-11-29T10:03:21.349Z,99914.45
2017-11-29T10:05:49.737Z,99912.33
2017-11-29T10:08:18.100Z,99910.58
2017-11-29T10:10:46.540Z,99910.54
2017-11-29T10:13:14.946Z,99910.48
2017-11-29T10:15:43.084Z,99900.67
2017-11-29T10:18:11.566Z,99903.16
2017-11-29T10:20:39.979Z,99912.45
2017-11-29T10:23:08.385Z,99905.16
2017-11-29T10:25:36.699Z,99910.66
2017-11-29T10:28:05.099Z,99910.66
2017-11-29T10:30:33.515Z,99905.95
2017-11-29T10:33:01.888Z,99910.12
2017-11-29T10:35:30.549Z,99909.25
2017-11-29T10:37:59.213Z,99908.39
2017-11-29T10:40:27.624Z,99915.55
2017-11-29T10:42:55.924Z,99915.97
2017-11-29T10:45:24.062Z,99912.22
2017-11-29T10:47:52.448Z,99915.55
2017-11-29T10:50:20.913Z,99916.77
2017-11-29T10:52:49.295Z,99914.22
2017-11-29T10:55:17.665Z,99913.77
2017-11-29T10:57:46.089Z,99915.84
2017-11-29T11:00:14.084Z,99919.63
2017-11-29T11:02:42.466Z,99917.11
2017-11-29T11:05:11.145Z,99920.89
2017-11-29T11:07:39.977Z,99922.14
2017-11-29T11:10:08.386Z,99926.34
2017-11-29T11:12:36.717Z,99924.62
2017-11-29T11:15:05.106Z,99924.23
2017-11-29T11:17:33.560Z,99916.53
2017-11-29T11:20:01.943Z,99921.14
2017-11-29T11:22:30.316Z,99918.19
2017-11-29T11:24:58.582Z,99918.16
2017-11-29T11:27:26.835Z,99912.64
2017-11-29T11:29:55.152Z,99922.45
2017-11-29T11:32:23.567Z,99920.28
2017-11-29T11:34:51.809Z,99925.80
2017-11-29T11:37:20.177Z,99929.61
2017-11-29T11:39:48.518Z,99928.38
2017-11-29T11:42:17.072Z,99931.75
2017-11-29T11:44:45.471Z,99927.92
2017-11-29T11:47:13.902Z,99925.83
2017-11-29T11:49:42.050Z,99925.45
2017-11-29T11:52:10.504Z,99921.18
2017-11-29T11:54:39.528Z,99917.77
2017-11-29T11:57:07.780Z,99922.48
2017-11-29T11:59:36.143Z,99920.35
2017-11-29T12:02:04.496Z,99919.48
2017-11-29T12:04:33.269Z,99924.55
2017-11-29T12:07:01.643Z,99915.64
2017-11-29T12:09:29.998Z,99918.22
2017-11-29T12:11:58.404Z,99922.00
2017-11-29T12:14:27.102Z,99922.80
2017-11-29T12:16:55.766Z,99915.57
2017-11-29T12:19:24.144Z,99911.75
2017-11-29T12:21:52.532Z,99919.01
2017-11-29T12:24:20.910Z,99914.30
2017-11-29T12:26:49.245Z,99916.47
2017-11-29T12:29:17.568Z,99915.22
2017-11-29T12:31:45.936Z,99914.33
2017-11-29T12:34:14.307Z,99916.05
2017-11-29T12:36:42.632Z,99906.69
2017-11-29T12:39:11.008Z,99907.97
2017-11-29T12:41:39.656Z,99906.69
2017-11-29T12:44:08.043Z,99913.05
2017-11-29T12:46:36.362Z,99910.09
2017-11-29T12:49:16.151Z,99913.05
2017-11-29T12:51:44.803Z,99907.10
2017-11-29T12:54:13.205Z,99907.52
2017-11-29T12:56:41.640Z,99915.13
2017-11-29T12:59:10.031Z,99906.21
2017-11-29T13:01:38.858Z,99905.83
2017-11-29T13:04:07.274Z,99910.92
2017-11-29T13:06:35.718Z,99905.31
2017-11-29T13:09:04.218Z,99909.58
2017-11-29T13:11:32.901Z,99912.52
2017-11-29T13:14:01.240Z,99913.81
2017-11-29T13:16:29.941Z,99912.09
2017-11-29T13:18:58.304Z,99910.34
2017-11-29T13:21:26.703Z,99913.84
2017-11-29T13:23:55.332Z,99917.19
2017-11-29T13:26:23.669Z,99925.66
2017-11-29T13:28:52.063Z,99925.22
2017-11-29T13:31:20.809Z,99930.31
2017-11-29T13:33:49.528Z,99932.00
2017-11-29T13:36:18.196Z,99923.56
2017-11-29T13:38:46.838Z,99920.12
2017-11-29T13:41:15.552Z,99928.55
2017-11-29T13:43:44.213Z,99924.73
2017-11-29T13:46:13.001Z,99926.04
2017-11-29T13:48:41.383Z,99918.02
2017-11-29T13:51:09.747Z,99921.88
2017-11-29T13:53:38.125Z,99923.94
2017-11-29T13:56:06.464Z,99922.66
2017-11-29T13:58:35.038Z,99927.73
2017-11-29T14:01:03.246Z,99924.32
2017-11-29T14:03:31.608Z,99922.19
2017-11-29T14:06:00.000Z,99926.87
2017-11-29T14:08:28.631Z,99924.28
2017-11-29T14:10:57.268Z,99922.63
2017-11-29T14:13:41.907Z,99926.01
2017-11-29T14:16:10.531Z,99928.59
2017-11-29T14:18:39.194Z,99934.03
2017-11-29T14:21:07.818Z,99932.82
2017-11-29T14:23:36.422Z,99935.37
2017-11-29T14:26:05.089Z,99940.44
2017-11-29T14:28:33.703Z,99937.09
2017-11-29T14:31:02.361Z,99941.36
2017-11-29T14:33:30.999Z,99940.56
2017-11-29T14:35:59.319Z,99945.25
2017-11-29T14:38:27.991Z,99935.95
2017-11-29T14:40:56.601Z,99941.45
2017-11-29T14:43:25.260Z,99944.48
2017-11-29T14:45:53.933Z,99944.07
2017-11-29T14:48:22.633Z,99942.42
2017-11-29T14:50:51.283Z,99942.45
2017-11-29T14:53:24.102Z,99942.03
2017-11-29T14:55:52.815Z,99939.94
2017-11-29T14:58:21.487Z,99948.85
2017-11-29T15:00:50.103Z,99946.34
2017-11-29T15:03:23.469Z,99946.37
2017-11-29T15:05:52.099Z,99951.46
2017-11-29T15:08:20.786Z,99951.05
2017-11-29T15:10:49.394Z,99957.00
2017-11-29T15:13:18.015Z,99947.74
2017-11-29T15:15:46.664Z,99951.56
2017-11-29T15:18:15.339Z,99950.25
2017-11-29T15:20:44.106Z,99949.46
2017-11-29T15:23:12.857Z,99952.11
2017-11-29T15:25:43.184Z,99944.95
2017-11-29T15:28:11.867Z,99947.48
2017-11-29T15:30:41.950Z,99945.39
2017-11-29T15:33:10.480Z,99945.42
2017-11-29T15:35:39.150Z,99943.77
2017-11-29T15:38:07.834Z,99943.80
2017-11-29T15:40:36.523Z,99944.62
2017-11-29T15:43:05.179Z,99946.79
2017-11-29T15:45:33.845Z,99944.69
2017-11-29T15:48:02.500Z,99950.61
2017-11-29T15:50:31.216Z,99944.72
2017-11-29T15:52:59.871Z,99950.33
2017-11-29T15:55:28.840Z,99949.09
2017-11-29T15:57:57.510Z,99952.14
2017-11-29T16:00:26.163Z,99944.98
2017-11-29T16:02:54.858Z,99943.33
2017-11-29T16:05:23.579Z,99942.53
2017-11-29T16:07:52.250Z,99942.15
2017-11-29T16:10:20.774Z,99946.41
2017-11-29T16:12:49.285Z,99942.22
2017-11-29T16:15:17.984Z,99951.09
2017-11-29T16:17:46.644Z,99952.02
2017-11-29T16:20:15.355Z,99944.00
2017-11-29T16:22:43.742Z,99945.72
2017-11-29T16:25:12.431Z,99947.53
2017-11-29T16:27:40.994Z,99948.80
2017-11-29T16:30:09.713Z,99944.57
2017-11-29T16:32:38.423Z,99949.25
2017-11-29T16:35:07.083Z,99939.48
2017-11-29T16:37:35.567Z,99948.80
2017-11-29T16:40:04.111Z,99952.66
2017-11-29T16:42:32.785Z,99952.72
2017-11-29T16:45:03.350Z,99954.41
2017-11-29T16:47:32.017Z,99962.48
2017-11-29T16:50:00.644Z,99968.47
2017-11-29T16:52:29.275Z,99969.36
2017-11-29T16:55:08.776Z,99969.01
2017-11-29T16:57:38.077Z,99969.48
2017-11-29T17:00:06.436Z,99967.86
2017-11-29T17:02:37.225Z,99966.17
2017-11-29T17:05:05.885Z,99967.03
2017-11-29T17:07:34.622Z,99964.93
2017-11-29T17:10:03.300Z,99956.02
2017-11-29T17:12:32.000Z,99952.20
2017-11-29T17:15:00.643Z,99952.71
2017-11-29T17:17:29.401Z,99953.16
2017-11-29T17:20:00.968Z,99954.43
2017-11-29T17:22:43.667Z,99951.91
2017-11-29T17:25:26.470Z,99952.33
2017-11-29T17:28:11.405Z,99957.92
2017-11-29T17:30:54.136Z,99955.44
2017-11-29T17:33:45.266Z,99956.33
2017-11-29T17:36:27.126Z,99962.28
2017-11-29T17:39:09.985Z,99957.19
2017-11-29T17:41:50.943Z,99964.03
2017-11-29T17:44:34.695Z,99962.34
2017-11-29T17:47:18.479Z,99964.13
2017-11-29T17:50:05.298Z,99957.76
2017-11-29T17:52:48.028Z,99964.98
2017-11-29T17:55:31.810Z,99970.48
2017-11-29T18:00:58.400Z,99968.03
2017-11-29T18:03:34.472Z,99971.02
2017-11-29T18:06:03.432Z,99965.96
2017-11-29T18:08:32.128Z,99972.47
2017-11-29T18:11:08.029Z,99972.00
2017-11-29T18:13:52.217Z,99980.91
2017-11-29T18:16:28.239Z,99975.84
2017-11-29T18:19:07.525Z,99977.66
2017-11-29T18:21:50.313Z,99977.63
2017-11-29T18:24:29.636Z,99974.78
2017-11-29T18:27:10.256Z,99979.84
2017-11-29T18:29:43.698Z,99976.50
2017-11-29T18:32:12.560Z,99977.36
2017-11-29T18:34:41.178Z,99972.72
2017-11-29T18:37:14.987Z,99970.23
2017-11-29T18:39:43.664Z,99971.18
2017-11-29T18:42:15.645Z,99976.72
2017-11-29T18:44:55.668Z,99974.11
2017-11-29T18:47:33.049Z,99979.73
2017-11-29T18:50:16.408Z,99976.39
2017-11-29T18:52:58.028Z,99979.80
2017-11-29T18:55:41.318Z,99981.92
2017-11-29T18:58:25.258Z,99988.31
2017-11-29T19:01:04.418Z,99983.66
2017-11-29T19:03:47.878Z,99984.50
2017-11-29T19:06:26.222Z,99990.47
2017-11-29T19:09:05.758Z,99988.34
2017-11-29T19:11:49.646Z,99994.29
2017-11-29T19:14:28.158Z,99987.92
2017-11-29T19:17:09.381Z,99990.47
2017-11-29T19:19:52.679Z,99991.39
2017-11-29T19:22:37.217Z,99987.16
2017-11-29T19:25:15.756Z,99989.28
2017-11-29T19:27:54.929Z,99986.33
2017-11-29T19:30:34.812Z,99988.91
2017-11-29T19:33:18.680Z,99993.55
2017-11-29T19:35:56.100Z,99985.95
2017-11-29T19:38:37.593Z,99978.81
2017-11-29T19:41:20.441Z,99973.26
2017-11-29T19:43:57.105Z,99974.14
2017-11-29T19:46:41.507Z,99977.66
2017-11-29T19:49:19.281Z,99974.65
2017-11-29T19:51:59.148Z,99981.00
2017-11-29T19:54:37.184Z,99980.59
2017-11-29T19:57:11.711Z,99975.98
2017-11-29T19:59:54.373Z,99975.50
2017-11-29T20:02:36.363Z,99976.80
2017-11-29T20:05:18.271Z,99967.08
2017-11-29T20:08:01.145Z,99970.48
2017-11-29T20:10:43.703Z,99978.11
2017-11-29T20:13:27.781Z,99978.99
2017-11-29T20:16:01.211Z,99977.34
2017-11-29T20:18:34.655Z,99974.77
2017-11-29T20:21:19.172Z,99980.27
2017-11-29T20:24:10.219Z,99980.27
2017-11-29T20:26:47.330Z,99980.27
2017-11-29T20:29:27.279Z,99972.66
2017-11-29T20:32:08.549Z,99976.09
2017-11-29T20:34:47.421Z,99976.03
2017-11-29T20:37:31.856Z,99973.52
2017-11-29T20:40:06.692Z,99977.81
2017-11-29T20:42:35.327Z,99980.35
2017-11-29T20:45:03.976Z,99971.45
2017-11-29T20:47:43.492Z,99983.28
2017-11-29T20:50:25.360Z,99982.86
2017-11-29T20:53:12.397Z,99983.34
2017-11-29T20:55:55.858Z,99980.35
2017-11-29T20:58:34.789Z,99981.21
2017-11-29T21:01:16.331Z,99982.06
2017-11-29T21:03:51.521Z,99979.11
2017-11-29T21:06:20.625Z,99978.72
2017-11-29T21:08:49.258Z,99977.02
2017-11-29T21:11:17.731Z,99971.95
2017-11-29T21:13:46.455Z,99970.23
2017-11-29T21:16:15.695Z,99974.53
2017-11-29T21:18:43.950Z,99974.11
2017-11-29T21:21:12.570Z,99971.95
2017-11-29T21:23:41.201Z,99973.22
2017-11-29T21:26:09.869Z,99971.59
2017-11-29T21:28:39.798Z,99970.74
2017-11-29T21:31:09.319Z,99970.70
2017-11-29T21:33:39.504Z,99974.97
2017-11-29T21:36:08.171Z,99969.00
2017-11-29T21:38:36.788Z,99970.70
2017-11-29T21:41:05.469Z,99969.47
2017-11-29T21:43:34.091Z,99969.02
2017-11-29T21:46:02.755Z,99966.92
2017-11-29T21:48:31.386Z,99972.42
2017-11-29T21:51:00.032Z,99966.07
2017-11-29T21:53:30.027Z,99964.83
2017-11-29T21:55:58.699Z,99966.09
2017-11-29T21:58:27.371Z,99968.20
2017-11-29T22:00:56.004Z,99969.88
2017-11-29T22:03:26.647Z,99971.16
2017-11-29T22:05:55.598Z,99971.21
2017-11-29T22:08:24.268Z,99966.98
2017-11-29T22:10:52.974Z,99967.02
2017-11-29T22:13:24.920Z,99967.81
2017-11-29T22:15:53.551Z,99965.27
2017-11-29T22:18:22.212Z,99967.02
2017-11-29T22:20:50.898Z,99963.17
2017-11-29T22:23:23.288Z,99958.08
2017-11-29T22:25:51.958Z,99961.07
2017-11-29T22:28:20.656Z,99955.63
2017-11-29T22:30:49.317Z,99956.02
2017-11-29T22:33:17.990Z,99948.77
2017-11-29T22:35:46.611Z,99950.06
2017-11-29T22:38:15.269Z,99953.44
2017-11-29T22:40:43.924Z,99951.28
2017-11-29T22:43:12.555Z,99946.67
2017-11-29T22:45:41.230Z,99947.87
2017-11-29T22:48:09.834Z,99950.90
2017-11-29T22:50:38.458Z,99943.27
2017-11-29T22:53:07.142Z,99945.02
2017-11-29T22:55:35.752Z,99940.72
2017-11-29T22:58:04.415Z,99944.95
2017-11-29T23:00:33.084Z,99945.78
2017-11-29T23:03:01.747Z,99938.21
2017-11-29T23:05:30.360Z,99941.55
2017-11-29T23:07:59.031Z,99939.07
2017-11-29T23:10:27.668Z,99942.00
2017-11-29T23:12:56.295Z,99934.78
2017-11-29T23:15:24.957Z,99932.27
2017-11-29T23:17:53.679Z,99929.70
2017-11-29T23:20:22.351Z,99930.55
2017-11-29T23:22:50.993Z,99925.02
2017-11-29T23:25:19.804Z,99930.49
2017-11-29T23:27:48.485Z,99934.28
2017-11-29T23:30:17.133Z,99930.02
2017-11-29T23:32:45.768Z,99919.05
2017-11-29T23:35:14.458Z,99924.94
2017-11-29T23:37:44.785Z,99925.79
2017-11-29T23:40:13.578Z,99923.25
2017-11-29T23:42:42.243Z,99924.97
2017-11-29T23:45:10.611Z,99921.98
2017-11-29T23:47:39.286Z,99921.14
2017-11-29T23:50:07.949Z,99922.39
2017-11-29T23:52:37.767Z,99918.58
2017-11-29T23:55:06.419Z,99914.34
2017-11-29T23:57:35.075Z,99913.88
